Terminal Aerodrome Forecast
Issued by NWS Sioux Falls, SD

Home | Current Version | Previous Version | Text Only | Print | Product List | Glossary On
Versions: 1 2 3 4 5 6 7 8 9 10 11 12 13 14 15 16 17 18 19
000
FTUS43 KFSD 261721
TAFFSD
TAF
KFSD 261721Z 2618/2718 33019G25KT P6SM OVC015
     FM261900 33013G21KT P6SM OVC020
     FM262100 33014KT P6SM OVC035
     FM262200 33014KT P6SM OVC025
     FM271600 33010KT P6SM SCT035=

USA.gov is the U.S. government's official web portal to all federal, state and local government web resources and services.